Time;durP1;ratioP1;P1;durP2;ratioP2;P2;SDS_P1;SDS_P2;PMS_P1;PMS_P2;Temp;Humidity;BMP_temperature;BMP_pressure;BME280_temperature;BME280_humidity;BME280_pressure;Samples;Min_cycle;Max_cycle;Signal;HPM_P1;HPM_P2
2023/10/24 00:01:22;;;;;;;7.47;3.13;;;11.80;99.90;;;;;;4939436;29;20031;-73
2023/10/24 00:03:48;;;;;;;7.13;4.03;;;11.80;99.90;;;;;;4956762;29;20445;-74
2023/10/24 00:06:15;;;;;;;7.43;4.50;;;11.80;99.90;;;;;;4956599;29;20024;-75
2023/10/24 00:08:40;;;;;;;7.53;4.70;;;11.80;99.90;;;;;;4956474;29;20043;-74
2023/10/24 00:11:06;;;;;;;7.53;4.63;;;11.70;99.90;;;;;;4956398;29;20051;-76
2023/10/24 00:13:32;;;;;;;10.20;5.57;;;11.80;99.90;;;;;;4956549;29;20502;-74
2023/10/24 00:15:58;;;;;;;11.43;5.13;;;11.80;99.90;;;;;;4956531;29;20102;-74
2023/10/24 00:18:28;;;;;;;7.13;4.47;;;11.70;99.90;;;;;;4956514;29;20027;-74
2023/10/24 00:20:53;;;;;;;8.70;4.70;;;11.70;99.90;;;;;;4939125;29;20054;-73
2023/10/24 00:23:19;;;;;;;11.13;4.75;;;11.70;99.90;;;;;;4939160;29;20423;-73
2023/10/24 00:25:45;;;;;;;7.20;4.88;;;11.70;99.90;;;;;;4938922;29;20031;-74
2023/10/24 00:28:11;;;;;;;9.02;5.40;;;11.60;99.90;;;;;;4955942;29;20110;-74
2023/10/24 00:30:36;;;;;;;9.73;6.05;;;11.60;99.90;;;;;;4957773;28;20074;-74
2023/10/24 00:33:03;;;;;;;7.93;4.82;;;11.60;99.90;;;;;;4975181;28;20019;-74
2023/10/24 00:35:28;;;;;;;12.63;6.20;;;11.60;99.90;;;;;;4974877;28;20027;-77
2023/10/24 00:37:54;;;;;;;8.38;4.68;;;11.60;99.90;;;;;;4971814;28;20026;-74
2023/10/24 00:40:20;;;;;;;9.55;5.78;;;11.60;99.90;;;;;;4969700;28;20040;-80
2023/10/24 00:42:45;;;;;;;8.27;5.40;;;11.60;99.90;;;;;;4981703;28;20144;-75
2023/10/24 00:45:11;;;;;;;8.80;4.90;;;11.60;99.90;;;;;;4975479;28;20023;-73
2023/10/24 00:47:38;;;;;;;8.38;4.63;;;11.60;99.90;;;;;;4974999;28;20030;-73
2023/10/24 00:50:05;;;;;;;6.68;4.32;;;11.60;99.90;;;;;;4980436;28;20022;-74
2023/10/24 00:52:32;;;;;;;9.60;4.65;;;11.50;99.90;;;;;;4995929;28;20033;-77
2023/10/24 00:54:58;;;;;;;7.80;4.50;;;11.50;99.90;;;;;;4994904;28;20169;-77
2023/10/24 00:57:25;;;;;;;6.05;3.95;;;11.50;99.90;;;;;;4994576;28;20026;-76
2023/10/24 00:59:51;;;;;;;5.97;3.60;;;11.50;99.90;;;;;;4994106;28;20053;-75
2023/10/24 01:02:17;;;;;;;8.20;4.03;;;11.50;99.90;;;;;;4994369;28;20327;-76
2023/10/24 01:04:44;;;;;;;8.57;4.43;;;11.50;99.90;;;;;;4994311;28;20044;-75
2023/10/24 01:07:09;;;;;;;7.93;4.43;;;11.50;99.90;;;;;;4994233;28;20030;-75
2023/10/24 01:09:35;;;;;;;7.03;3.65;;;11.40;99.90;;;;;;4993881;28;20457;-74
2023/10/24 01:12:01;;;;;;;7.28;4.35;;;11.40;99.90;;;;;;4994150;28;20031;-75
2023/10/24 01:14:27;;;;;;;6.65;4.22;;;11.50;99.90;;;;;;4993996;28;20054;-75
2023/10/24 01:16:52;;;;;;;8.75;4.43;;;11.40;99.90;;;;;;4993949;28;20033;-75
2023/10/24 01:19:18;;;;;;;6.82;3.80;;;11.40;99.90;;;;;;4994159;28;20018;-74
2023/10/24 01:21:47;;;;;;;5.80;3.75;;;11.40;99.90;;;;;;4976491;28;20117;-75
2023/10/24 01:24:14;;;;;;;11.80;3.92;;;11.40;99.90;;;;;;4994047;28;20157;-74
2023/10/24 01:26:41;;;;;;;10.45;4.15;;;11.40;99.90;;;;;;4991370;28;20551;-75
2023/10/24 01:29:08;;;;;;;6.70;3.55;;;11.40;99.90;;;;;;4974334;28;20027;-75
2023/10/24 01:31:34;;;;;;;5.80;3.85;;;11.40;99.90;;;;;;4956966;28;20030;-75
2023/10/24 01:33:59;;;;;;;4.70;3.17;;;11.40;99.90;;;;;;4956723;28;20027;-75
2023/10/24 01:36:25;;;;;;;6.70;3.70;;;11.40;99.90;;;;;;4974160;28;20153;-75
2023/10/24 01:38:50;;;;;;;6.40;3.85;;;11.40;99.90;;;;;;4974195;28;20034;-75
2023/10/24 01:41:16;;;;;;;9.15;4.70;;;11.40;99.90;;;;;;4974192;28;20026;-75
2023/10/24 01:43:42;;;;;;;7.15;4.50;;;11.40;99.90;;;;;;4974041;28;20018;-74
2023/10/24 01:46:08;;;;;;;7.78;3.80;;;11.40;99.90;;;;;;4973834;28;20482;-75
2023/10/24 01:48:33;;;;;;;8.48;4.00;;;11.40;99.90;;;;;;4973919;28;20031;-74
2023/10/24 01:50:59;;;;;;;9.35;4.30;;;11.40;99.90;;;;;;4973969;28;20097;-74
2023/10/24 01:53:24;;;;;;;6.88;3.80;;;11.40;99.90;;;;;;4973627;28;20482;-75
2023/10/24 01:55:50;;;;;;;7.30;3.80;;;11.40;99.90;;;;;;4973959;28;20054;-75
2023/10/24 01:58:16;;;;;;;8.55;4.00;;;11.40;99.90;;;;;;4973618;28;20023;-74
2023/10/24 02:00:41;;;;;;;8.07;3.92;;;11.40;99.90;;;;;;4973643;28;20023;-74
2023/10/24 02:03:07;;;;;;;6.60;3.88;;;11.40;99.90;;;;;;4973897;28;20042;-73
2023/10/24 02:05:32;;;;;;;7.10;4.05;;;11.40;99.90;;;;;;4973819;28;20031;-73
2023/10/24 02:07:58;;;;;;;7.88;4.15;;;11.40;99.90;;;;;;4973627;28;20130;-73
2023/10/24 02:10:24;;;;;;;5.60;3.85;;;11.40;99.90;;;;;;4973082;28;20104;-74
2023/10/24 02:12:49;;;;;;;8.85;3.85;;;11.40;99.90;;;;;;4972906;28;20029;-73
2023/10/24 02:15:15;;;;;;;9.10;4.15;;;11.40;99.90;;;;;;4973275;28;20050;-74
2023/10/24 02:17:41;;;;;;;8.05;4.18;;;11.40;99.90;;;;;;4973195;28;20023;-74
2023/10/24 02:20:08;;;;;;;10.80;4.88;;;11.40;99.90;;;;;;4956082;28;20027;-75
2023/10/24 02:22:34;;;;;;;7.65;4.40;;;11.50;99.90;;;;;;4973382;28;20101;-75
2023/10/24 02:24:59;;;;;;;6.32;3.90;;;11.50;99.90;;;;;;4973213;28;20398;-75
2023/10/24 02:27:25;;;;;;;5.43;3.75;;;11.40;99.90;;;;;;4972942;28;20422;-73
2023/10/24 02:29:51;;;;;;;5.70;3.80;;;11.40;99.90;;;;;;4955662;28;20034;-73
2023/10/24 02:32:17;;;;;;;10.77;4.00;;;11.40;99.90;;;;;;4955737;28;20027;-74
2023/10/24 02:34:42;;;;;;;6.70;4.22;;;11.40;99.90;;;;;;4972932;28;20027;-73
2023/10/24 02:37:08;;;;;;;6.70;4.03;;;11.40;99.90;;;;;;4972889;28;20437;-76
2023/10/24 02:39:33;;;;;;;5.55;3.80;;;11.50;99.90;;;;;;4972845;28;20038;-75
2023/10/24 02:42:00;;;;;;;10.85;4.15;;;11.40;99.90;;;;;;4972890;28;20433;-74
2023/10/24 02:44:25;;;;;;;5.55;4.03;;;11.40;99.90;;;;;;4973067;28;20137;-74
2023/10/24 02:46:51;;;;;;;7.72;3.90;;;11.40;99.90;;;;;;4973044;28;20023;-74
2023/10/24 02:49:17;;;;;;;7.47;3.97;;;11.40;99.90;;;;;;4955973;28;20494;-75
2023/10/24 02:51:42;;;;;;;6.88;4.10;;;11.40;99.90;;;;;;4973004;28;20114;-76
2023/10/24 02:54:08;;;;;;;10.00;4.28;;;11.50;99.90;;;;;;4973011;28;20026;-75
2023/10/24 02:56:34;;;;;;;4.95;3.20;;;11.50;99.90;;;;;;4972936;28;20495;-75
2023/10/24 02:58:59;;;;;;;6.03;2.70;;;11.40;99.90;;;;;;4971872;28;20169;-74
2023/10/24 03:01:25;;;;;;;4.55;2.50;;;11.50;99.90;;;;;;4972988;28;20042;-75
2023/10/24 03:03:51;;;;;;;5.72;2.85;;;11.50;99.90;;;;;;4973318;28;20105;-75
2023/10/24 03:06:18;;;;;;;4.78;2.90;;;11.60;99.90;;;;;;4973115;28;20027;-76
2023/10/24 03:08:43;;;;;;;5.72;2.53;;;11.60;99.90;;;;;;4973183;28;20034;-77
2023/10/24 03:11:09;;;;;;;4.88;2.40;;;11.60;99.90;;;;;;4955556;28;20023;-76
2023/10/24 03:13:36;;;;;;;8.05;2.55;;;11.60;99.90;;;;;;4956090;28;20027;-76
2023/10/24 03:16:03;;;;;;;9.73;2.17;;;11.70;99.90;;;;;;4972874;28;20097;-76
2023/10/24 03:18:34;;;;;;;6.97;2.28;;;11.70;99.90;;;;;;4973385;28;20131;-76
2023/10/24 03:21:02;;;;;;;8.15;2.13;;;11.80;99.90;;;;;;4973563;28;20014;-76
2023/10/24 03:23:28;;;;;;;4.80;2.28;;;11.80;99.90;;;;;;4974330;28;20052;-76
2023/10/24 03:25:53;;;;;;;5.38;2.00;;;11.80;99.90;;;;;;4977014;28;20035;-75
2023/10/24 03:28:19;;;;;;;4.55;2.13;;;11.90;99.90;;;;;;4976776;28;20038;-75
2023/10/24 03:30:45;;;;;;;2.78;1.90;;;11.90;99.90;;;;;;4976773;28;20050;-75
2023/10/24 03:33:10;;;;;;;7.32;2.17;;;11.90;99.90;;;;;;4976775;28;20030;-74
2023/10/24 03:35:36;;;;;;;6.50;2.20;;;12.00;99.90;;;;;;4976748;28;20026;-76
2023/10/24 03:38:02;;;;;;;8.13;2.28;;;11.90;99.90;;;;;;4977142;28;20039;-77
2023/10/24 03:40:28;;;;;;;5.72;2.35;;;11.90;99.90;;;;;;4959527;28;20431;-77
2023/10/24 03:42:54;;;;;;;6.03;2.20;;;12.00;99.90;;;;;;4977159;28;20062;-77
2023/10/24 03:45:20;;;;;;;5.55;2.00;;;12.00;99.90;;;;;;4960051;28;20352;-77
2023/10/24 03:47:48;;;;;;;5.53;1.80;;;12.00;99.90;;;;;;4977660;28;20038;-77
2023/10/24 03:50:15;;;;;;;6.78;2.30;;;12.00;99.90;;;;;;4960510;28;20118;-78
2023/10/24 03:52:40;;;;;;;7.35;2.10;;;12.10;99.90;;;;;;4960765;28;20055;-78
2023/10/24 03:55:06;;;;;;;6.18;2.10;;;12.10;99.90;;;;;;4977029;28;20077;-77
2023/10/24 03:57:31;;;;;;;3.88;1.70;;;12.10;99.90;;;;;;4974069;28;20034;-77
2023/10/24 03:59:57;;;;;;;5.28;2.35;;;12.10;99.90;;;;;;4976026;28;20090;-76
2023/10/24 04:02:23;;;;;;;6.55;1.83;;;12.10;99.90;;;;;;4959004;28;20035;-75
2023/10/24 04:04:48;;;;;;;7.15;1.85;;;12.10;99.90;;;;;;4976376;28;20540;-75
2023/10/24 04:07:14;;;;;;;7.38;1.75;;;12.10;99.90;;;;;;4976428;28;20441;-75
2023/10/24 04:09:40;;;;;;;5.80;2.03;;;12.10;99.90;;;;;;4958699;28;20019;-75
2023/10/24 04:12:06;;;;;;;7.53;1.80;;;12.10;99.90;;;;;;4958843;28;20039;-74
2023/10/24 04:14:31;;;;;;;3.63;1.60;;;12.10;99.90;;;;;;4976330;28;20023;-75
2023/10/24 04:16:57;;;;;;;7.43;2.05;;;12.10;99.90;;;;;;4959371;28;20161;-75
2023/10/24 04:19:23;;;;;;;6.72;1.90;;;12.10;99.90;;;;;;4976786;28;20029;-74
2023/10/24 04:21:48;;;;;;;11.93;2.97;;;12.20;99.90;;;;;;4976133;28;20030;-75
2023/10/24 04:24:14;;;;;;;4.03;1.92;;;12.20;99.90;;;;;;4976683;28;20078;-76
2023/10/24 04:26:40;;;;;;;5.00;2.10;;;12.20;99.90;;;;;;4976732;28;20058;-76
2023/10/24 04:29:05;;;;;;;8.80;2.15;;;12.20;99.90;;;;;;4958884;28;20030;-76
2023/10/24 04:31:31;;;;;;;6.82;2.22;;;12.30;99.90;;;;;;4958627;28;20099;-74
2023/10/24 04:33:57;;;;;;;5.32;2.05;;;12.30;99.90;;;;;;4957765;28;20022;-75
2023/10/24 04:36:22;;;;;;;7.38;2.38;;;12.30;99.90;;;;;;4957816;28;20569;-74
2023/10/24 04:38:48;;;;;;;6.68;1.90;;;12.30;99.90;;;;;;4958510;28;20066;-73
2023/10/24 04:41:14;;;;;;;7.55;2.72;;;12.40;99.90;;;;;;4975233;28;20031;-75
2023/10/24 04:43:39;;;;;;;4.38;2.60;;;12.30;99.90;;;;;;4975528;28;20019;-76
2023/10/24 04:46:05;;;;;;;3.53;2.08;;;12.30;99.90;;;;;;4975303;28;20117;-74
2023/10/24 04:48:30;;;;;;;5.40;2.72;;;12.30;99.90;;;;;;4974949;28;20022;-74
2023/10/24 04:50:56;;;;;;;7.90;2.75;;;12.30;99.90;;;;;;4957610;28;20065;-74
2023/10/24 04:53:22;;;;;;;6.38;2.05;;;12.40;99.90;;;;;;4957675;28;20034;-73
2023/10/24 04:55:48;;;;;;;7.45;2.35;;;12.40;99.90;;;;;;4974851;28;20125;-73
2023/10/24 04:58:13;;;;;;;5.28;2.40;;;12.40;99.90;;;;;;4974736;28;20030;-73
2023/10/24 05:00:39;;;;;;;6.35;2.60;;;12.30;99.90;;;;;;4974742;28;20070;-73
2023/10/24 05:03:05;;;;;;;3.72;2.28;;;12.30;99.90;;;;;;4974897;28;20102;-73
2023/10/24 05:05:30;;;;;;;4.10;2.22;;;12.40;99.90;;;;;;4974703;28;20026;-73
2023/10/24 05:07:56;;;;;;;4.82;2.92;;;12.40;99.90;;;;;;4957242;28;20088;-74
2023/10/24 05:10:21;;;;;;;5.57;2.97;;;12.40;99.90;;;;;;4974757;28;20038;-73
2023/10/24 05:12:47;;;;;;;6.82;2.50;;;12.40;99.90;;;;;;4967444;28;20027;-72
2023/10/24 05:15:13;;;;;;;5.38;2.47;;;12.50;99.90;;;;;;4968912;28;20641;-70
2023/10/24 05:17:38;;;;;;;5.72;2.50;;;12.50;99.90;;;;;;4966597;28;20042;-72
2023/10/24 05:20:07;;;;;;;6.03;2.72;;;12.60;99.90;;;;;;4970561;28;20513;-73
2023/10/24 05:22:35;;;;;;;5.45;3.30;;;12.60;99.90;;;;;;4971108;28;20030;-71
2023/10/24 05:25:01;;;;;;;7.03;3.33;;;12.70;99.90;;;;;;4970233;28;20419;-71
2023/10/24 05:27:27;;;;;;;6.97;2.95;;;12.80;99.90;;;;;;4966830;28;20032;-73
2023/10/24 05:29:53;;;;;;;6.15;2.38;;;12.80;99.90;;;;;;4967021;28;20032;-73
2023/10/24 05:32:18;;;;;;;7.47;3.17;;;12.80;99.90;;;;;;4966591;28;20022;-71
2023/10/24 05:34:44;;;;;;;6.57;3.25;;;12.80;99.90;;;;;;4945218;28;20023;-74
2023/10/24 05:37:10;;;;;;;6.30;2.92;;;12.90;99.90;;;;;;4968525;28;20479;-74
2023/10/24 05:39:35;;;;;;;8.77;4.68;;;12.90;99.90;;;;;;4973699;28;20679;-76
2023/10/24 05:42:01;;;;;;;7.88;3.17;;;12.90;99.90;;;;;;4956515;28;20035;-74
2023/10/24 05:44:27;;;;;;;6.15;3.22;;;12.90;99.90;;;;;;4974004;28;20477;-74
2023/10/24 05:46:53;;;;;;;6.20;3.13;;;12.90;99.90;;;;;;4966302;28;20035;-73
2023/10/24 05:49:19;;;;;;;10.90;4.03;;;12.90;99.90;;;;;;4956630;28;20397;-74
2023/10/24 05:51:45;;;;;;;5.45;3.63;;;12.90;99.90;;;;;;4956426;28;20019;-73
2023/10/24 05:54:11;;;;;;;8.23;3.85;;;12.80;99.90;;;;;;4956257;28;20018;-74
2023/10/24 05:56:36;;;;;;;7.55;4.10;;;12.80;99.90;;;;;;4973641;28;20102;-73
2023/10/24 05:59:02;;;;;;;8.88;3.70;;;12.80;99.90;;;;;;4973383;28;20054;-74
2023/10/24 06:01:28;;;;;;;9.23;4.13;;;12.80;99.90;;;;;;4953937;28;20513;-73
2023/10/24 06:03:53;;;;;;;8.05;4.47;;;12.80;99.90;;;;;;4954603;28;20031;-73
2023/10/24 06:06:19;;;;;;;7.80;3.88;;;12.80;99.90;;;;;;4969833;28;20058;-74
2023/10/24 06:08:45;;;;;;;9.10;4.40;;;12.80;99.90;;;;;;4972831;28;20031;-72
2023/10/24 06:11:11;;;;;;;10.43;3.70;;;12.80;99.90;;;;;;4955916;28;20613;-73
2023/10/24 06:13:37;;;;;;;6.82;3.70;;;12.80;99.90;;;;;;4973367;28;20034;-72
2023/10/24 06:16:13;;;;;;;6.32;3.75;;;12.80;99.90;;;;;;4973099;28;20550;-72
2023/10/24 06:18:39;;;;;;;7.18;3.90;;;12.80;99.90;;;;;;4973046;28;20035;-73
2023/10/24 06:21:06;;;;;;;8.05;4.22;;;12.80;99.90;;;;;;4973293;28;20027;-72
2023/10/24 06:23:33;;;;;;;8.07;4.03;;;12.80;99.90;;;;;;4973141;28;20022;-72
2023/10/24 06:25:59;;;;;;;6.88;3.97;;;12.80;99.90;;;;;;4973203;28;20027;-72
2023/10/24 06:28:25;;;;;;;9.52;4.30;;;12.80;99.90;;;;;;4972885;28;20030;-72
2023/10/24 06:31:00;;;;;;;10.73;4.90;;;12.80;99.90;;;;;;4973014;28;20478;-72
2023/10/24 06:33:27;;;;;;;12.73;4.97;;;12.80;99.90;;;;;;4976473;28;20034;-72
2023/10/24 06:35:54;;;;;;;6.28;4.43;;;12.80;99.90;;;;;;4967327;28;20438;-73
2023/10/24 06:38:19;;;;;;;7.35;4.53;;;12.80;99.90;;;;;;4975446;28;20030;-73
2023/10/24 06:40:45;;;;;;;9.00;4.53;;;12.80;99.90;;;;;;4959412;28;20037;-72
2023/10/24 06:43:12;;;;;;;8.93;4.25;;;12.80;99.90;;;;;;4953789;28;20023;-73
2023/10/24 06:45:37;;;;;;;6.55;4.20;;;12.80;99.90;;;;;;4969092;28;20078;-72
2023/10/24 06:48:06;;;;;;;7.03;4.40;;;12.80;99.90;;;;;;4965903;28;20054;-73
2023/10/24 06:50:34;;;;;;;8.23;4.10;;;12.80;99.90;;;;;;4972641;28;20125;-72
2023/10/24 06:53:00;;;;;;;8.85;4.50;;;12.80;99.90;;;;;;4968481;28;20266;-73
2023/10/24 06:55:25;;;;;;;8.98;4.22;;;12.90;99.90;;;;;;4955452;28;20029;-71
2023/10/24 06:57:51;;;;;;;6.55;3.75;;;12.90;99.90;;;;;;4982876;28;20031;-71
2023/10/24 07:00:18;;;;;;;8.70;4.20;;;12.90;99.90;;;;;;4978948;28;20494;-72
2023/10/24 07:02:43;;;;;;;8.90;3.95;;;12.90;99.90;;;;;;4973889;28;20058;-72
2023/10/24 07:05:09;;;;;;;7.50;4.00;;;12.90;99.90;;;;;;4954932;28;20027;-73
2023/10/24 07:07:38;;;;;;;6.88;3.53;;;13.00;99.90;;;;;;4973630;28;20394;-72
2023/10/24 07:10:05;;;;;;;6.90;3.78;;;13.00;99.90;;;;;;4971529;28;20073;-73
2023/10/24 07:12:31;;;;;;;9.73;4.22;;;13.00;99.90;;;;;;4955016;28;20482;-73
2023/10/24 07:14:58;;;;;;;9.55;4.72;;;13.00;99.90;;;;;;4975453;28;20015;-74
2023/10/24 07:17:24;;;;;;;11.73;4.55;;;13.00;99.90;;;;;;4972325;28;20450;-71
2023/10/24 07:19:50;;;;;;;13.73;5.15;;;13.00;99.90;;;;;;4974099;28;20106;-73
2023/10/24 07:22:15;;;;;;;19.30;5.50;;;13.00;99.90;;;;;;4972190;28;20031;-73
2023/10/24 07:24:41;;;;;;;16.08;5.97;;;12.90;99.90;;;;;;4971356;28;20478;-73
2023/10/24 07:27:08;;;;;;;9.90;5.47;;;12.80;99.90;;;;;;4972158;28;20035;-74
2023/10/24 07:29:34;;;;;;;17.20;6.30;;;12.80;99.90;;;;;;4965912;28;20046;-74
2023/10/24 07:31:59;;;;;;;14.15;6.35;;;12.70;99.90;;;;;;4973749;28;20474;-73
2023/10/24 07:34:25;;;;;;;12.77;6.10;;;12.60;99.90;;;;;;4967686;28;20518;-73
2023/10/24 07:36:51;;;;;;;12.88;6.50;;;12.50;99.90;;;;;;4972742;28;20031;-72
2023/10/24 07:39:16;;;;;;;11.80;6.97;;;12.40;99.90;;;;;;4967875;28;20513;-72
2023/10/24 07:41:42;;;;;;;9.40;6.00;;;12.30;99.90;;;;;;4971939;28;20076;-72
2023/10/24 07:44:08;;;;;;;11.70;5.80;;;12.30;99.90;;;;;;4954377;28;20064;-71
2023/10/24 07:46:33;;;;;;;10.07;5.63;;;12.30;99.90;;;;;;4969323;28;20023;-72
2023/10/24 07:48:59;;;;;;;11.45;6.03;;;12.20;99.90;;;;;;4952185;28;20027;-72
2023/10/24 07:51:27;;;;;;;10.98;5.80;;;12.20;99.90;;;;;;4971684;28;20027;-72
2023/10/24 07:53:54;;;;;;;8.45;5.07;;;12.20;99.90;;;;;;4978814;28;20049;-72
2023/10/24 07:56:19;;;;;;;8.77;4.97;;;12.20;99.90;;;;;;4972280;28;20609;-72
2023/10/24 07:58:46;;;;;;;9.07;5.65;;;12.20;99.90;;;;;;4969090;28;20118;-71
2023/10/24 08:01:11;;;;;;;11.05;5.43;;;12.20;99.90;;;;;;4972248;28;20031;-72
2023/10/24 08:03:37;;;;;;;7.78;4.60;;;12.20;99.90;;;;;;4989013;28;20030;-72
2023/10/24 08:06:04;;;;;;;9.23;4.47;;;12.20;99.90;;;;;;4984818;28;20368;-72
2023/10/24 08:08:29;;;;;;;8.85;4.85;;;12.20;99.90;;;;;;4971992;28;20226;-71
2023/10/24 08:10:55;;;;;;;7.63;5.13;;;12.10;99.90;;;;;;4974988;28;20121;-72
2023/10/24 08:13:21;;;;;;;7.43;5.55;;;12.10;99.90;;;;;;4970362;28;20474;-73
2023/10/24 08:15:51;;;;;;;11.38;6.68;;;12.10;99.90;;;;;;4979736;28;20109;-72
2023/10/24 08:18:17;;;;;;;10.55;5.78;;;12.10;99.90;;;;;;4973058;28;20382;-73
2023/10/24 08:20:43;;;;;;;8.88;5.10;;;12.10;99.90;;;;;;4955857;29;20033;-73
2023/10/24 08:23:09;;;;;;;9.77;4.97;;;12.10;99.90;;;;;;4971299;28;20030;-72
2023/10/24 08:25:34;;;;;;;10.05;5.50;;;12.10;99.90;;;;;;4973196;28;20098;-73
2023/10/24 08:28:00;;;;;;;8.95;5.13;;;12.10;99.90;;;;;;4960092;28;20106;-72
2023/10/24 08:30:26;;;;;;;10.45;5.97;;;12.10;99.90;;;;;;4975389;28;20023;-72
2023/10/24 08:32:51;;;;;;;9.35;5.18;;;12.10;99.90;;;;;;4975308;28;20027;-72
2023/10/24 08:35:18;;;;;;;9.57;5.07;;;12.10;99.90;;;;;;4975269;28;20023;-71
2023/10/24 08:37:43;;;;;;;9.55;6.07;;;12.10;99.90;;;;;;4975416;28;20031;-73
2023/10/24 08:40:09;;;;;;;11.60;5.80;;;12.10;99.90;;;;;;4976110;28;20084;-72
2023/10/24 08:42:36;;;;;;;10.35;5.18;;;12.20;99.90;;;;;;4974966;28;20034;-72
2023/10/24 08:45:03;;;;;;;8.25;5.15;;;12.20;99.90;;;;;;4975165;28;20062;-72
2023/10/24 08:47:31;;;;;;;13.45;5.38;;;12.20;99.90;;;;;;4957449;28;20161;-72
2023/10/24 08:49:59;;;;;;;12.93;5.18;;;12.20;99.90;;;;;;4974732;28;20414;-72
2023/10/24 08:52:25;;;;;;;13.32;5.88;;;12.20;99.90;;;;;;4974899;28;20023;-72
2023/10/24 08:54:51;;;;;;;18.50;6.00;;;12.20;99.90;;;;;;4974911;28;20343;-72
2023/10/24 08:57:23;;;;;;;13.57;6.10;;;12.20;99.90;;;;;;4973497;28;20149;-72
2023/10/24 08:59:50;;;;;;;12.38;5.90;;;12.20;99.90;;;;;;4974454;28;20653;-72
2023/10/24 09:02:16;;;;;;;12.00;6.78;;;12.30;99.90;;;;;;4957215;28;20104;-73
2023/10/24 09:04:42;;;;;;;11.88;6.35;;;12.30;99.90;;;;;;4957253;28;20163;-73
2023/10/24 09:07:08;;;;;;;14.43;6.55;;;12.30;99.90;;;;;;4974342;28;20118;-73
2023/10/24 09:09:33;;;;;;;10.15;6.20;;;12.30;99.90;;;;;;4974518;28;20398;-72
2023/10/24 09:12:00;;;;;;;13.00;5.95;;;12.30;99.90;;;;;;4974394;28;20430;-72
2023/10/24 09:14:28;;;;;;;11.88;6.50;;;12.30;99.90;;;;;;4974366;28;20022;-72
2023/10/24 09:16:58;;;;;;;10.50;5.60;;;12.30;99.90;;;;;;4974340;28;20399;-72
2023/10/24 09:19:24;;;;;;;18.67;6.63;;;12.40;99.90;;;;;;4974323;28;20118;-73
2023/10/24 09:21:50;;;;;;;13.75;5.90;;;12.40;99.90;;;;;;4956817;28;20027;-72
2023/10/24 09:24:17;;;;;;;10.07;5.97;;;12.40;99.90;;;;;;4972917;28;20023;-72
2023/10/24 09:26:54;;;;;;;9.55;6.10;;;12.50;99.90;;;;;;4974061;28;20051;-72
2023/10/24 09:29:20;;;;;;;11.18;7.28;;;12.40;99.90;;;;;;4974114;28;20027;-73
2023/10/24 09:31:48;;;;;;;13.48;7.07;;;12.50;99.90;;;;;;4956734;28;20031;-72
2023/10/24 09:34:15;;;;;;;18.10;6.85;;;12.50;99.90;;;;;;4973967;28;20027;-72
2023/10/24 09:36:41;;;;;;;12.60;6.78;;;12.50;99.90;;;;;;4974119;28;20111;-73
2023/10/24 09:39:10;;;;;;;17.63;7.28;;;12.50;99.90;;;;;;4973854;28;20109;-73
2023/10/24 09:41:40;;;;;;;19.15;7.90;;;12.50;99.90;;;;;;4973876;28;20093;-73
2023/10/24 09:44:06;;;;;;;16.65;7.32;;;12.50;99.90;;;;;;4974241;28;20061;-73
2023/10/24 09:46:34;;;;;;;11.30;6.53;;;12.50;99.90;;;;;;4973645;28;20027;-73
2023/10/24 09:49:07;;;;;;;15.15;7.50;;;12.60;99.90;;;;;;4973808;28;20050;-72
2023/10/24 09:51:37;;;;;;;15.13;7.55;;;12.60;99.90;;;;;;4956637;28;20026;-73
2023/10/24 09:54:07;;;;;;;13.57;7.35;;;12.60;99.90;;;;;;4973605;28;20030;-73
2023/10/24 09:56:33;;;;;;;13.73;7.43;;;12.60;99.90;;;;;;4973866;28;20504;-72
2023/10/24 09:58:59;;;;;;;12.88;6.97;;;12.70;99.90;;;;;;4973529;28;20110;-73
2023/10/24 10:01:27;;;;;;;15.70;7.15;;;12.70;99.90;;;;;;4973377;28;20073;-72
2023/10/24 10:03:58;;;;;;;14.88;7.10;;;12.70;99.90;;;;;;4973586;28;20057;-72
2023/10/24 10:06:27;;;;;;;13.38;6.22;;;12.70;99.90;;;;;;4973378;28;20027;-72
2023/10/24 10:08:55;;;;;;;15.95;6.78;;;12.80;99.90;;;;;;4973406;28;20030;-72
2023/10/24 10:11:22;;;;;;;13.55;7.05;;;12.80;99.90;;;;;;4956006;28;20486;-73
2023/10/24 10:13:52;;;;;;;12.88;6.22;;;12.80;99.90;;;;;;4973168;28;20018;-72
2023/10/24 10:16:41;;;;;;;12.95;6.57;;;12.80;99.90;;;;;;4973289;28;20106;-73
2023/10/24 10:19:46;;;;;;;11.77;5.97;;;12.80;99.90;;;;;;4973200;28;20018;-73
2023/10/24 10:22:12;;;;;;;12.50;5.80;;;12.80;99.90;;;;;;4955908;28;20030;-72
2023/10/24 10:24:57;;;;;;;11.68;6.00;;;12.90;99.90;;;;;;4973069;28;20027;-73
2023/10/24 10:27:36;;;;;;;10.60;6.88;;;12.90;99.90;;;;;;4972957;28;20027;-72
2023/10/24 10:30:39;;;;;;;12.38;7.00;;;12.90;99.90;;;;;;4972910;28;20030;-73
2023/10/24 10:33:19;;;;;;;12.88;6.82;;;12.90;99.90;;;;;;4954939;28;20042;-72
2023/10/24 10:35:56;;;;;;;13.57;7.50;;;12.90;99.90;;;;;;4955569;28;20022;-72
2023/10/24 10:38:44;;;;;;;17.83;7.80;;;12.90;99.90;;;;;;4972920;28;20430;-73
2023/10/24 10:41:22;;;;;;;12.43;6.28;;;13.00;99.90;;;;;;4972919;28;20031;-72
2023/10/24 10:43:59;;;;;;;13.65;7.00;;;13.00;99.90;;;;;;4955424;28;20026;-72
2023/10/24 10:46:29;;;;;;;14.85;7.20;;;13.00;99.90;;;;;;4955443;28;20027;-73
2023/10/24 10:49:00;;;;;;;11.15;6.40;;;13.00;99.90;;;;;;4955364;28;20482;-72
2023/10/24 10:51:31;;;;;;;14.23;6.78;;;13.00;99.90;;;;;;4972685;28;20031;-73
2023/10/24 10:54:02;;;;;;;11.15;5.97;;;13.00;99.90;;;;;;4955287;28;20062;-73
2023/10/24 10:56:30;;;;;;;16.75;6.60;;;13.00;99.90;;;;;;4972689;28;20022;-72
2023/10/24 10:59:08;;;;;;;11.60;6.32;;;13.10;99.90;;;;;;4972337;28;20068;-73
2023/10/24 11:01:52;;;;;;;11.57;6.28;;;13.10;99.90;;;;;;4972496;28;20445;-73
2023/10/24 11:04:18;;;;;;;;;;;13.10;99.90;;;;;;4973082;28;20030;-73
2023/10/24 11:06:54;;;;;;;9.88;5.30;;;13.10;99.90;;;;;;4972491;28;19910;-73
2023/10/24 11:09:21;;;;;;;12.30;6.28;;;13.10;99.90;;;;;;4972552;28;20110;-73
2023/10/24 11:12:26;;;;;;;13.27;5.45;;;13.10;99.90;;;;;;4955048;28;20023;-73
2023/10/24 11:15:07;;;;;;;;;;;13.20;99.90;;;;;;4972078;28;20038;-73
2023/10/24 11:17:33;;;;;;;8.93;3.50;;;13.20;99.90;;;;;;4955070;28;20329;-72
2023/10/24 11:19:59;;;;;;;8.02;3.97;;;13.20;99.90;;;;;;4954943;28;20125;-73
2023/10/24 11:22:26;;;;;;;6.82;3.40;;;13.20;99.90;;;;;;4972463;28;20081;-73
2023/10/24 11:24:52;;;;;;;6.63;4.07;;;13.20;99.90;;;;;;4972585;28;20038;-73
2023/10/24 11:27:22;;;;;;;10.73;3.55;;;13.20;99.90;;;;;;4972545;28;20389;-73
2023/10/24 11:29:48;;;;;;;7.28;3.47;;;13.30;99.90;;;;;;4972418;28;20014;-73
2023/10/24 11:32:14;;;;;;;8.40;3.50;;;13.30;99.90;;;;;;4955566;28;20494;-73
2023/10/24 11:34:40;;;;;;;6.63;3.25;;;13.30;99.90;;;;;;4973032;28;20025;-73
2023/10/24 11:37:08;;;;;;;5.47;2.30;;;13.30;99.90;;;;;;4973171;28;20030;-74
2023/10/24 11:39:34;;;;;;;5.05;2.28;;;13.30;99.90;;;;;;4972292;28;20034;-73
2023/10/24 11:42:01;;;;;;;5.03;2.13;;;13.30;99.90;;;;;;4972181;28;20086;-73
2023/10/24 11:44:26;;;;;;;5.15;1.98;;;13.30;99.90;;;;;;4973307;28;20037;-72
2023/10/24 11:46:52;;;;;;;3.47;1.50;;;13.30;99.90;;;;;;4975990;28;20027;-73
2023/10/24 11:49:18;;;;;;;4.45;1.40;;;13.30;99.90;;;;;;4958511;28;20026;-72
2023/10/24 11:51:43;;;;;;;3.35;1.17;;;13.30;99.90;;;;;;4975764;28;20086;-72
2023/10/24 11:54:11;;;;;;;3.83;1.00;;;13.30;99.90;;;;;;4975849;28;20022;-72
2023/10/24 11:56:38;;;;;;;2.58;1.30;;;13.30;99.90;;;;;;4975745;28;20418;-73
2023/10/24 11:59:04;;;;;;;2.95;1.20;;;13.30;99.90;;;;;;4975599;28;20154;-73
2023/10/24 12:01:31;;;;;;;3.22;1.40;;;13.30;99.90;;;;;;4975451;28;20055;-73
2023/10/24 12:03:59;;;;;;;3.55;1.00;;;13.30;99.90;;;;;;4958171;28;20050;-72
2023/10/24 12:06:29;;;;;;;2.13;1.10;;;13.30;99.90;;;;;;4975575;28;20030;-74
2023/10/24 12:08:55;;;;;;;3.42;1.10;;;13.30;99.90;;;;;;4975443;28;20435;-73
2023/10/24 12:11:22;;;;;;;2.63;1.33;;;13.30;99.90;;;;;;4975428;28;20475;-73
2023/10/24 12:13:48;;;;;;;2.33;0.90;;;13.30;99.90;;;;;;4975272;28;20081;-73
2023/10/24 12:16:14;;;;;;;3.22;1.23;;;13.30;99.90;;;;;;4975480;28;20490;-73
2023/10/24 12:18:40;;;;;;;2.58;1.30;;;13.30;99.90;;;;;;4975260;28;20501;-73
2023/10/24 12:21:07;;;;;;;2.35;1.13;;;13.30;99.90;;;;;;4975331;28;20102;-74
2023/10/24 12:23:34;;;;;;;2.90;1.42;;;13.30;99.90;;;;;;4975112;28;20443;-73
2023/10/24 12:26:00;;;;;;;1.88;0.93;;;13.30;99.90;;;;;;4957851;28;20089;-73
2023/10/24 12:28:26;;;;;;;3.67;1.38;;;13.30;99.90;;;;;;4975211;28;20047;-73
2023/10/24 12:30:53;;;;;;;3.85;1.00;;;13.30;99.90;;;;;;4974889;28;20015;-73
2023/10/24 12:33:18;;;;;;;3.75;1.10;;;13.30;99.90;;;;;;4975205;28;20041;-73
2023/10/24 12:35:44;;;;;;;3.78;1.00;;;13.30;99.90;;;;;;4974968;28;20027;-74
2023/10/24 12:38:10;;;;;;;2.38;1.10;;;13.30;99.90;;;;;;4975064;28;20031;-73
2023/10/24 12:40:38;;;;;;;1.63;0.85;;;13.40;99.90;;;;;;4974938;28;20035;-73
2023/10/24 12:43:04;;;;;;;2.15;1.00;;;13.40;99.90;;;;;;4973550;28;20038;-73
2023/10/24 12:45:30;;;;;;;3.85;1.30;;;13.40;99.90;;;;;;4974924;28;20023;-74